Latest Weather Observations for Kurnell

IDN60901

Issued at 11:31 pm EST Saturday 29 April 2017 (issued every 10 minutes, with the page automatically refreshed every 10 minutes)

About weather observations | Map of Sydney area stations | Latest observations for Sydney area | Other Formats
Station Details ID: 066043 Name: KURNELL AWS Lat: -34.00 Lon: 151.21 Height: 4.0 m
Data from the previous 72 hours. | See also: Recent months for locations in New South Wales
Date/Time
EST
Temp
°C
App
Temp
°C
Dew
Point
°C
Rel
Hum
%
Delta-T
°C
Wind Press
QNH
hPa
Press
MSL
hPa
Rain since
9am
mm
Dir  Spd
km/h
Gust
km/h
Spd
kts
Gust
kts
29/11:30pm - - - - - W 11 13 6 7 - - -
29/11:00pm - - - - - WNW 13 17 7 9 - - -
29/10:30pm - - - - - W 9 13 5 7 - - -
29/10:00pm - - - - - S 6 9 3 5 - - -
29/09:30pm - - - - - S 9 11 5 6 - - -
29/09:00pm - - - - - SSE 13 17 7 9 - - -
29/08:30pm - - - - - S 11 15 6 8 - - -
29/08:00pm - - - - - S 11 15 6 8 - - -
29/07:30pm - - - - - S 15 19 8 10 - - -
29/07:00pm - - - - - S 15 19 8 10 - - -
29/06:30pm - - - - - S 13 19 7 10 - - -
29/06:00pm - - - - - S 17 20 9 11 - - -
29/05:30pm - - - - - S 13 17 7 9 - - -
29/05:00pm - - - - - S 13 17 7 9 - - -
29/04:30pm - - - - - S 15 20 8 11 - - -
29/04:00pm - - - - - S 17 22 9 12 - - -
29/03:30pm - - - - - S 15 22 8 12 - - -
29/03:00pm - - - - - S 15 22 8 12 - - -
29/02:30pm - - - - - S 13 20 7 11 - - -
29/02:00pm - - - - - SSW 6 11 3 6 - - -
29/01:30pm - - - - - SSE 9 13 5 7 - - -
29/01:00pm - - - - - NNW 9 11 5 6 - - -
29/12:30pm - - - - - NNE 11 13 6 7 - - -
29/12:00pm - - - - - NW 7 9 4 5 - - -
29/11:30am - - - - - W 7 13 4 7 - - -
29/11:00am - - - - - NW 13 13 7 7 - - -
29/10:30am - - - - - WNW 13 15 7 8 - - -
29/10:00am - - - - - WNW 15 17 8 9 - - -
29/09:30am - - - - - WNW 17 19 9 10 - - -
29/09:00am - - - - - WNW 17 19 9 10 - - -
29/08:30am - - - - - WNW 17 20 9 11 - - -
29/08:00am - - - - - WNW 19 22 10 12 - - -
29/07:30am - - - - - NW 19 22 10 12 - - -
29/07:00am - - - - - NW 17 20 9 11 - - -
29/06:30am - - - - - NW 15 17 8 9 - - -
29/06:00am - - - - - NNW 13 19 7 10 - - -
29/05:30am - - - - - NW 15 17 8 9 - - -
29/05:00am - - - - - WNW 17 19 9 10 - - -
29/04:30am - - - - - WNW 17 19 9 10 - - -
29/04:00am - - - - - WNW 17 19 9 10 - - -
29/03:30am - - - - - WNW 17 19 9 10 - - -
29/03:00am - - - - - NNW 15 19 8 10 - - -
29/02:30am - - - - - WNW 17 19 9 10 - - -
29/02:00am - - - - - NW 15 17 8 9 - - -
29/01:30am - - - - - NW 17 19 9 10 - - -
29/01:00am - - - - - WNW 15 19 8 10 - - -
29/12:30am - - - - - WNW 7 9 4 5 - - -
29/12:00am - - - - - WSW 11 15 6 8 - - -
 
Date/Time
EST
Temp
°C
App
Temp
°C
Dew
Point
°C
Rel
Hum
%
Delta-T
°C
Wind Press
QNH
hPa
Press
MSL
hPa
Rain since
9am
mm
Dir  Spd
km/h
Gust
km/h
Spd
kts
Gust
kts
28/11:30pm - - - - - WSW 15 22 8 12 - - -
28/11:00pm - - - - - WNW 15 19 8 10 - - -
28/10:30pm - - - - - WNW 17 19 9 10 - - -
28/10:00pm - - - - - WNW 13 15 7 8 - - -
28/09:30pm - - - - - W 13 13 7 7 - - -
28/09:00pm - - - - - W 11 13 6 7 - - -
28/08:30pm - - - - - WSW 7 9 4 5 - - -
28/08:00pm - - - - - WSW 9 11 5 6 - - -
28/07:30pm - - - - - SSE 6 7 3 4 - - -
28/07:00pm - - - - - SSE 6 7 3 4 - - -
28/06:30pm - - - - - S 9 9 5 5 - - -
28/06:00pm - - - - - S 9 13 5 7 - - -
28/05:30pm - - - - - S 11 17 6 9 - - -
28/05:00pm - - - - - S 17 20 9 11 - - -
28/04:30pm - - - - - S 17 24 9 13 - - -
28/04:00pm - - - - - S 19 26 10 14 - - -
28/03:30pm - - - - - S 19 24 10 13 - - -
28/03:00pm - - - - - S 20 30 11 16 - - -
28/02:30pm - - - - - S 20 28 11 15 - - -
28/02:00pm - - - - - SSW 22 28 12 15 - - -
28/01:30pm - - - - - S 19 28 10 15 - - -
28/01:00pm - - - - - SSW 22 30 12 16 - - -
28/12:30pm - - - - - SSW 24 32 13 17 - - -
28/12:00pm - - - - - SSW 24 33 13 18 - - -
28/11:30am - - - - - SSW 26 33 14 18 - - -
28/11:00am - - - - - SSW 26 32 14 17 - - -
28/10:30am - - - - - SSW 24 33 13 18 - - -
28/10:00am - - - - - SW 26 35 14 19 - - -
28/09:30am - - - - - W 19 24 10 13 - - -
28/09:00am - - - - - W 22 28 12 15 - - -
28/08:30am - - - - - W 22 26 12 14 - - -
28/08:00am - - - - - W 24 28 13 15 - - -
28/07:30am - - - - - W 26 30 14 16 - - -
28/07:00am - - - - - W 24 28 13 15 - - -
28/06:30am - - - - - W 26 30 14 16 - - -
28/06:00am - - - - - W 26 30 14 16 - - -
28/05:30am - - - - - W 24 28 13 15 - - -
28/05:00am - - - - - W 26 30 14 16 - - -
28/04:30am - - - - - W 26 30 14 16 - - -
28/04:00am - - - - - W 24 28 13 15 - - -
28/03:30am - - - - - W 26 30 14 16 - - -
28/03:00am - - - - - WSW 24 30 13 16 - - -
28/02:30am - - - - - WSW 22 28 12 15 - - -
28/02:00am - - - - - SW 32 46 17 25 - - -
28/01:30am - - - - - SW 35 48 19 26 - - -
28/01:00am - - - - - SW 39 54 21 29 - - -
28/12:30am - - - - - SW 35 50 19 27 - - -
28/12:00am - - - - - SW 35 44 19 24 - - -
 
Date/Time
EST
Temp
°C
App
Temp
°C
Dew
Point
°C
Rel
Hum
%
Delta-T
°C
Wind Press
QNH
hPa
Press
MSL
hPa
Rain since
9am
mm
Dir  Spd
km/h
Gust
km/h
Spd
kts
Gust
kts
27/11:46pm - - - - - SW 30 48 16 26 - - -
27/11:30pm - - - - - SW 28 35 15 19 - - -
27/11:00pm - - - - - WSW 28 37 15 20 - - -
27/10:30pm - - - - - WSW 28 33 15 18 - - -
27/10:00pm - - - - - WSW 24 28 13 15 - - -
27/09:30pm - - - - - WSW 24 30 13 16 - - -
27/09:00pm - - - - - SSW 24 39 13 21 - - -
27/08:30pm - - - - - SW 26 33 14 18 - - -
27/08:00pm - - - - - SW 26 32 14 17 - - -
27/07:30pm - - - - - SW 28 37 15 20 - - -
27/07:01pm - - - - - SW 33 52 18 28 - - -
27/07:00pm - - - - - SSW 35 52 19 28 - - -
27/06:49pm - - - - - SW 30 48 16 26 - - -
27/06:30pm - - - - - SW 24 33 13 18 - - -
27/06:00pm - - - - - SW 28 35 15 19 - - -
27/05:30pm - - - - - SW 32 41 17 22 - - -
27/05:00pm - - - - - SW 32 41 17 22 - - -
27/04:38pm - - - - - SW 32 50 17 27 - - -
27/04:30pm - - - - - SW 32 46 17 25 - - -
27/04:00pm - - - - - SW 33 52 18 28 - - -
27/03:58pm - - - - - SW 33 52 18 28 - - -
27/03:30pm - - - - - SSW 37 50 20 27 - - -
27/03:00pm - - - - - SW 35 48 19 26 - - -
27/02:30pm - - - - - SW 35 46 19 25 - - -
27/02:21pm - - - - - SSW 35 54 19 29 - - -
27/02:00pm - - - - - SW 35 50 19 27 - - -
27/01:30pm - - - - - SW 37 48 20 26 - - -
27/01:00pm - - - - - SSW 35 46 19 25 - - -
27/12:30pm - - - - - SW 33 44 18 24 - - -
27/12:00pm - - - - - SW 30 37 16 20 - - -
27/11:30am - - - - - SSW 30 39 16 21 - - -
27/11:00am - - - - - SW 30 37 16 20 - - -
27/10:30am - - - - - SW 26 33 14 18 - - -
27/10:00am - - - - - WSW 24 28 13 15 - - -
27/09:30am - - - - - W 28 32 15 17 - - -
27/09:00am - - - - - W 28 33 15 18 - - -
27/08:30am - - - - - W 28 33 15 18 - - -
27/08:00am - - - - - W 30 33 16 18 - - -
27/07:30am - - - - - W 30 35 16 19 - - -
27/07:00am - - - - - W 30 37 16 20 - - -
27/06:30am - - - - - W 28 32 15 17 - - -
27/06:00am - - - - - W 28 32 15 17 - - -
27/05:30am - - - - - W 30 33 16 18 - - -
27/05:00am - - - - - W 28 32 15 17 - - -
27/04:30am - - - - - W 22 30 12 16 - - -
27/04:00am - - - - - W 24 28 13 15 - - -
27/03:30am - - - - - W 28 33 15 18 - - -
27/03:00am - - - - - W 24 28 13 15 - - -
27/02:30am - - - - - W 20 26 11 14 - - -
27/02:00am - - - - - W 26 30 14 16 - - -
27/01:30am - - - - - WSW 24 30 13 16 - - -
27/01:00am - - - - - W 26 32 14 17 - - -
27/12:30am - - - - - W 24 28 13 15 - - -
27/12:00am - - - - - WSW 24 33 13 18 - - -

Latest Capital City Observations: Canberra | Sydney | Melbourne | Brisbane | Adelaide | Perth | Hobart | Darwin

Other Formats:

Comma delimited format used in spreadsheet applications
http://www.bom.gov.au/fwo/IDN60901/IDN60901.95756.axf

JavaScript Object Notation format (JSON) in row-major order
http://www.bom.gov.au/fwo/IDN60901/IDN60901.95756.json